Fayville, Illinois
Current Conditions -  °F | °C
As of 2:11 PM on Thursday 29 Jan 2015 (Local Time) from KCGI Reporting Station
Overcast Overcast  
Wind Chill: 34°   Ceiling: 3000
Heat Index: 43°   Visibility: 10mi
Dew Point: 32°   Wind: 20mph
Humidity: 65%   Direction: 320°NW
Pressure: 30.2"   Gusts: 25mph
Location:  37.1947°N, 89.3961°W
Report Text: KCGI 292011Z 32017G22KT 10SM OVC030 06/00 A3020 RMK AO2 T00610000
Loading
Personal Weather Stations






























Interactive Weather Map New forecast layout! Learn more

10-Day Weather Forecast

Advertisements
Track Severe Weather on mobile